createdAt,value
2024-04-30T00:00:24.221Z,13.90
2024-04-30T00:02:51.223Z,12.40
2024-04-30T00:05:18.160Z,12.30
2024-04-30T00:07:45.310Z,12.20
2024-04-30T00:10:12.252Z,12.20
2024-04-30T00:12:40.518Z,12.10
2024-04-30T00:15:07.881Z,12.10
2024-04-30T00:17:34.945Z,12.20
2024-04-30T00:20:02.137Z,12.10
2024-04-30T00:22:29.320Z,12.10
2024-04-30T00:24:56.382Z,12.00
2024-04-30T00:27:23.337Z,11.90
2024-04-30T00:29:50.316Z,11.80
2024-04-30T00:32:17.340Z,11.80
2024-04-30T00:34:45.405Z,11.60
2024-04-30T00:37:12.691Z,11.50
2024-04-30T00:39:39.857Z,11.30
2024-04-30T00:42:07.495Z,11.30
2024-04-30T00:44:34.475Z,11.30
2024-04-30T00:47:01.821Z,11.20
2024-04-30T00:49:29.612Z,11.20
2024-04-30T00:51:57.868Z,11.20
2024-04-30T00:54:26.992Z,11.20
2024-04-30T00:56:55.619Z,11.10
2024-04-30T00:59:22.535Z,11.10
2024-04-30T01:01:49.835Z,11.00
2024-04-30T01:04:16.736Z,11.00
2024-04-30T01:06:43.697Z,10.90
2024-04-30T01:09:10.735Z,10.90
2024-04-30T01:11:37.790Z,11.00
2024-04-30T01:14:04.844Z,10.80
2024-04-30T01:16:31.844Z,10.80
2024-04-30T01:18:58.952Z,10.70
2024-04-30T01:21:25.919Z,10.60
2024-04-30T01:23:52.825Z,10.50
2024-04-30T01:26:19.859Z,10.50
2024-04-30T01:28:46.958Z,10.50
2024-04-30T01:31:13.875Z,10.30
2024-04-30T01:33:41.127Z,10.30
2024-04-30T01:36:08.158Z,10.30
2024-04-30T01:38:35.105Z,10.50
2024-04-30T01:41:02.187Z,10.20
2024-04-30T01:43:29.272Z,10.20
2024-04-30T01:45:58.176Z,10.30
2024-04-30T01:48:25.205Z,10.20
2024-04-30T01:50:52.179Z,10.30
2024-04-30T01:53:19.895Z,10.20
2024-04-30T01:55:46.889Z,10.20
2024-04-30T01:58:13.858Z,10.30
2024-04-30T02:00:40.780Z,10.10
2024-04-30T02:03:07.621Z,10.20
2024-04-30T02:05:34.586Z,11.60
2024-04-30T02:08:01.391Z,10.10
2024-04-30T02:10:28.295Z,9.90
2024-04-30T02:12:55.282Z,9.90
2024-04-30T02:15:22.267Z,10.00
2024-04-30T02:17:49.308Z,9.90
2024-04-30T02:20:16.647Z,9.90
2024-04-30T02:22:43.707Z,9.90
2024-04-30T02:25:10.757Z,9.80
2024-04-30T02:27:37.812Z,9.80
2024-04-30T02:30:05.182Z,9.80
2024-04-30T02:32:51.110Z,9.90
2024-04-30T02:35:18.060Z,9.80
2024-04-30T02:37:44.950Z,9.70
2024-04-30T02:40:12.035Z,9.70
2024-04-30T02:42:39.010Z,9.70
2024-04-30T02:45:06.205Z,9.70
2024-04-30T02:47:33.197Z,9.70
2024-04-30T02:50:00.266Z,9.60
2024-04-30T02:52:28.273Z,9.50
2024-04-30T02:54:55.252Z,9.50
2024-04-30T02:57:22.105Z,9.50
2024-04-30T02:59:49.069Z,9.50
2024-04-30T03:02:15.950Z,9.50
2024-04-30T03:04:46.085Z,9.50
2024-04-30T03:07:13.033Z,9.50
2024-04-30T03:09:39.926Z,9.40
2024-04-30T03:12:07.065Z,9.40
2024-04-30T03:14:33.945Z,9.40
2024-04-30T03:17:00.997Z,9.30
2024-04-30T03:19:27.967Z,9.30
2024-04-30T03:21:54.972Z,9.30
2024-04-30T03:24:21.903Z,9.30
2024-04-30T03:26:48.771Z,9.30
2024-04-30T03:29:15.584Z,9.20
2024-04-30T03:31:42.554Z,9.20
2024-04-30T03:34:09.599Z,9.10
2024-04-30T03:36:36.641Z,9.00
2024-04-30T03:39:03.526Z,9.00
2024-04-30T03:41:30.411Z,9.00
2024-04-30T03:43:57.579Z,8.90
2024-04-30T03:46:24.579Z,8.90
2024-04-30T03:48:51.551Z,8.90
2024-04-30T03:51:19.631Z,8.90
2024-04-30T03:53:47.853Z,9.10
2024-04-30T03:56:15.028Z,8.80
2024-04-30T03:58:41.922Z,8.80
2024-04-30T04:01:09.096Z,8.70
2024-04-30T04:03:36.161Z,10.40
2024-04-30T04:06:03.318Z,8.70
2024-04-30T04:08:30.217Z,8.80
2024-04-30T04:11:15.572Z,8.70
2024-04-30T04:14:01.130Z,9.70
2024-04-30T04:16:28.095Z,8.80
2024-04-30T04:18:55.014Z,8.80
2024-04-30T04:21:24.049Z,8.80
2024-04-30T04:23:51.268Z,8.70
2024-04-30T04:26:18.240Z,8.70
2024-04-30T04:28:45.465Z,8.70
2024-04-30T04:31:12.481Z,9.10
2024-04-30T04:33:39.468Z,8.60
2024-04-30T04:36:12.563Z,8.60
2024-04-30T04:38:39.481Z,8.60
2024-04-30T04:41:06.486Z,8.60
2024-04-30T04:43:33.381Z,8.60
2024-04-30T04:46:00.377Z,8.60
2024-04-30T04:48:27.453Z,8.50
2024-04-30T04:50:54.416Z,8.50
2024-04-30T04:53:21.660Z,8.50
2024-04-30T04:55:48.717Z,8.50
2024-04-30T04:58:15.715Z,8.60
2024-04-30T05:00:42.533Z,8.50
2024-04-30T05:03:09.436Z,8.60
2024-04-30T05:05:36.388Z,8.60
2024-04-30T05:08:03.491Z,8.70
2024-04-30T05:10:30.476Z,8.80
2024-04-30T05:12:57.680Z,8.70
2024-04-30T05:15:24.781Z,8.80
2024-04-30T05:17:51.812Z,8.90
2024-04-30T05:20:18.797Z,9.00
2024-04-30T05:22:45.948Z,9.00
2024-04-30T05:25:13.366Z,9.10
2024-04-30T05:27:40.247Z,9.20
2024-04-30T05:30:08.017Z,9.30
2024-04-30T05:32:35.083Z,9.30
2024-04-30T05:35:02.259Z,9.40
2024-04-30T05:37:29.427Z,9.50
2024-04-30T05:39:56.336Z,9.70
2024-04-30T05:42:23.311Z,9.70
2024-04-30T05:44:50.319Z,9.70
2024-04-30T05:47:17.246Z,9.80
2024-04-30T05:49:44.210Z,9.90
2024-04-30T05:52:11.321Z,10.00
2024-04-30T05:54:38.614Z,10.00
2024-04-30T05:57:05.711Z,10.20
2024-04-30T05:59:32.644Z,10.40
2024-04-30T06:01:59.717Z,10.60
2024-04-30T06:04:27.475Z,10.90
2024-04-30T06:06:54.621Z,11.20
2024-04-30T06:09:21.653Z,12.00
2024-04-30T06:11:48.754Z,12.00
2024-04-30T06:14:15.609Z,12.30
2024-04-30T06:16:42.674Z,12.80
2024-04-30T06:19:09.887Z,13.30
2024-04-30T06:21:38.704Z,13.70
2024-04-30T06:24:06.705Z,14.00
2024-04-30T06:26:33.802Z,14.50
2024-04-30T06:29:00.811Z,14.70
2024-04-30T06:31:27.755Z,15.10
2024-04-30T06:33:54.977Z,16.80
2024-04-30T06:36:21.982Z,16.10
2024-04-30T06:38:48.971Z,15.90
2024-04-30T06:41:16.080Z,18.30
2024-04-30T06:43:43.183Z,17.80
2024-04-30T06:46:10.270Z,16.90
2024-04-30T06:48:37.251Z,17.10
2024-04-30T06:51:04.512Z,17.40
2024-04-30T06:53:31.390Z,17.60
2024-04-30T06:55:58.326Z,18.50
2024-04-30T06:58:25.409Z,18.10
2024-04-30T07:00:52.516Z,18.40
2024-04-30T07:03:19.489Z,18.40
2024-04-30T07:05:46.552Z,18.70
2024-04-30T07:08:13.551Z,18.60
2024-04-30T07:10:40.572Z,18.80
2024-04-30T07:13:10.530Z,19.00
2024-04-30T07:15:37.441Z,19.50
2024-04-30T07:18:04.812Z,19.70
2024-04-30T07:20:31.887Z,19.50
2024-04-30T07:22:58.805Z,19.70
2024-04-30T07:25:25.842Z,19.80
2024-04-30T07:27:52.916Z,20.10
2024-04-30T07:30:19.954Z,20.50
2024-04-30T07:32:46.954Z,20.40
2024-04-30T07:35:13.958Z,20.90
2024-04-30T07:37:40.956Z,20.70
2024-04-30T07:40:09.722Z,20.90
2024-04-30T07:42:36.657Z,21.20
2024-04-30T07:45:03.730Z,21.30
2024-04-30T07:47:30.714Z,21.20
2024-04-30T07:49:57.754Z,21.60
2024-04-30T07:52:24.722Z,21.30
2024-04-30T07:54:51.604Z,21.40
2024-04-30T07:57:18.588Z,21.40
2024-04-30T07:59:45.433Z,21.20
2024-04-30T08:02:14.635Z,21.20
2024-04-30T08:04:42.001Z,21.10
2024-04-30T08:07:09.008Z,20.90
2024-04-30T08:09:35.930Z,20.80
2024-04-30T08:12:03.170Z,20.60
2024-04-30T08:14:32.870Z,20.40
2024-04-30T08:17:02.018Z,20.20
2024-04-30T08:19:29.102Z,20.40
2024-04-30T08:21:56.144Z,20.50
2024-04-30T08:24:23.106Z,20.80
2024-04-30T08:26:50.085Z,20.40
2024-04-30T08:29:17.196Z,20.90
2024-04-30T08:31:44.722Z,20.30
2024-04-30T08:34:11.877Z,20.00
2024-04-30T08:36:38.984Z,20.80
2024-04-30T08:39:05.984Z,20.10
2024-04-30T08:41:38.044Z,20.70
2024-04-30T08:44:06.963Z,20.30
2024-04-30T08:46:36.174Z,20.40
2024-04-30T08:49:04.984Z,20.60
2024-04-30T08:51:32.052Z,20.80
2024-04-30T08:54:01.123Z,20.80
2024-04-30T08:56:28.296Z,21.10
2024-04-30T08:58:55.231Z,21.20
2024-04-30T09:01:23.509Z,21.30
2024-04-30T09:03:54.022Z,21.50
2024-04-30T09:06:21.631Z,22.00
2024-04-30T09:08:49.357Z,21.50
2024-04-30T09:11:16.790Z,21.50
2024-04-30T09:13:44.647Z,22.30
2024-04-30T09:16:13.698Z,21.60
2024-04-30T09:18:54.204Z,21.70
2024-04-30T09:21:28.707Z,21.80
2024-04-30T09:24:09.042Z,21.90
2024-04-30T09:26:37.060Z,22.00
2024-04-30T09:29:03.932Z,22.20
2024-04-30T09:31:38.095Z,22.10
2024-04-30T09:34:05.556Z,22.20
2024-04-30T09:36:37.430Z,22.20
2024-04-30T09:39:07.501Z,22.30
2024-04-30T09:41:41.349Z,22.30
2024-04-30T09:44:09.593Z,22.30
2024-04-30T09:46:36.838Z,23.50
2024-04-30T09:49:07.910Z,22.30
2024-04-30T09:51:40.039Z,22.30
2024-04-30T09:54:08.240Z,22.90
2024-04-30T09:56:35.203Z,22.50
2024-04-30T09:59:02.242Z,22.60
2024-04-30T10:01:33.125Z,22.60
2024-04-30T10:04:01.576Z,22.90
2024-04-30T10:06:30.653Z,23.00
2024-04-30T10:08:58.102Z,22.90
2024-04-30T10:11:25.074Z,22.90
2024-04-30T10:13:53.375Z,23.30
2024-04-30T10:16:22.547Z,23.40
2024-04-30T10:18:50.676Z,23.10
2024-04-30T10:21:17.736Z,23.20
2024-04-30T10:23:45.647Z,23.20
2024-04-30T10:26:13.244Z,23.60
2024-04-30T10:28:40.367Z,23.20
2024-04-30T10:31:12.340Z,23.20
2024-04-30T10:33:40.053Z,23.20
2024-04-30T10:36:11.196Z,23.10
2024-04-30T10:38:42.001Z,23.40
2024-04-30T10:41:09.961Z,23.00
2024-04-30T10:43:36.957Z,23.10
2024-04-30T10:46:15.617Z,23.10
2024-04-30T10:48:53.636Z,23.30
2024-04-30T10:51:23.129Z,23.10
2024-04-30T10:53:51.791Z,23.30
2024-04-30T10:56:19.374Z,23.50
2024-04-30T10:58:55.335Z,23.20
2024-04-30T11:01:27.078Z,23.20
2024-04-30T11:04:08.896Z,23.20
2024-04-30T11:06:45.800Z,23.30
2024-04-30T11:09:15.599Z,23.40
2024-04-30T11:11:50.816Z,23.60
2024-04-30T11:14:24.835Z,23.70
2024-04-30T11:16:56.603Z,23.60
2024-04-30T11:19:24.161Z,23.50
2024-04-30T11:21:54.174Z,23.90
2024-04-30T11:24:21.131Z,23.40
2024-04-30T11:26:50.713Z,23.40
2024-04-30T11:29:30.715Z,23.70
2024-04-30T11:32:05.037Z,23.90
2024-04-30T11:34:31.989Z,23.80
2024-04-30T11:36:58.923Z,24.00
2024-04-30T11:39:25.915Z,24.20
2024-04-30T11:42:01.467Z,24.20
2024-04-30T11:44:39.883Z,24.40
2024-04-30T11:47:07.322Z,24.40
2024-04-30T11:49:35.067Z,24.60
2024-04-30T11:52:03.332Z,24.50
2024-04-30T11:54:31.046Z,24.60
2024-04-30T11:56:57.997Z,24.60
2024-04-30T11:59:25.025Z,24.40
2024-04-30T12:01:52.169Z,24.70
2024-04-30T12:04:22.314Z,24.60
2024-04-30T12:06:49.345Z,24.90
2024-04-30T12:09:16.246Z,24.90
2024-04-30T12:11:43.155Z,24.90
2024-04-30T12:14:10.046Z,25.10
2024-04-30T12:16:37.154Z,25.20
2024-04-30T12:19:05.188Z,25.30
2024-04-30T12:21:32.091Z,25.50
2024-04-30T12:23:59.181Z,25.50
2024-04-30T12:26:26.257Z,25.50
2024-04-30T12:28:53.257Z,25.50
2024-04-30T12:31:20.120Z,25.60
2024-04-30T12:33:47.258Z,25.70
2024-04-30T12:36:14.215Z,25.80
2024-04-30T12:38:41.206Z,25.90
2024-04-30T12:41:08.231Z,25.90
2024-04-30T12:43:35.558Z,25.90
2024-04-30T12:46:05.539Z,26.00
2024-04-30T12:48:32.970Z,26.00
2024-04-30T12:50:59.887Z,26.00
2024-04-30T12:53:27.352Z,26.00
2024-04-30T12:55:54.262Z,26.00
2024-04-30T12:58:21.159Z,26.10
2024-04-30T13:00:53.164Z,26.10
2024-04-30T13:03:20.479Z,26.20
2024-04-30T13:05:47.501Z,26.20
2024-04-30T13:08:14.355Z,26.20
2024-04-30T13:10:41.410Z,26.10
2024-04-30T13:13:08.572Z,26.10
2024-04-30T13:15:35.711Z,26.10
2024-04-30T13:18:02.662Z,26.20
2024-04-30T13:20:29.645Z,26.20
2024-04-30T13:22:56.470Z,26.30
2024-04-30T13:25:25.342Z,26.30
2024-04-30T13:27:52.501Z,26.30
2024-04-30T13:30:19.451Z,26.30
2024-04-30T13:32:46.362Z,26.40
2024-04-30T13:35:13.440Z,26.50
2024-04-30T13:37:41.816Z,26.60
2024-04-30T13:40:09.042Z,26.70
2024-04-30T13:42:36.478Z,26.60
2024-04-30T13:45:04.420Z,26.60
2024-04-30T13:47:31.515Z,26.70
2024-04-30T13:49:58.511Z,26.80
2024-04-30T13:52:25.535Z,26.80
2024-04-30T13:54:52.422Z,26.80
2024-04-30T13:57:19.469Z,26.70
2024-04-30T13:59:46.553Z,26.70
2024-04-30T14:02:17.303Z,26.70
2024-04-30T14:04:44.925Z,26.70
2024-04-30T14:07:11.939Z,26.70
2024-04-30T14:09:39.112Z,26.70
2024-04-30T14:12:07.652Z,26.70
2024-04-30T14:14:38.448Z,26.70
2024-04-30T14:17:05.711Z,26.70
2024-04-30T14:19:34.842Z,26.90
2024-04-30T14:22:02.540Z,26.80
2024-04-30T14:24:29.441Z,26.70
2024-04-30T14:26:56.428Z,26.90
2024-04-30T14:29:23.431Z,26.90
2024-04-30T14:31:50.670Z,26.80
2024-04-30T14:34:17.801Z,26.80
2024-04-30T14:36:45.818Z,26.80
2024-04-30T14:39:13.197Z,26.70
2024-04-30T14:41:42.416Z,26.90
2024-04-30T14:44:09.435Z,26.80
2024-04-30T14:46:36.412Z,27.10
2024-04-30T14:49:03.580Z,26.80
2024-04-30T14:51:37.912Z,26.90
2024-04-30T14:54:05.824Z,26.80
2024-04-30T14:56:33.728Z,26.90
2024-04-30T14:59:02.010Z,27.00
2024-04-30T15:01:29.096Z,27.00
2024-04-30T15:03:59.738Z,26.90
2024-04-30T15:06:28.975Z,26.90
2024-04-30T15:08:56.111Z,26.70
2024-04-30T15:11:25.102Z,26.70
2024-04-30T15:13:52.655Z,26.60
2024-04-30T15:16:20.734Z,26.70
2024-04-30T15:18:48.732Z,26.50
2024-04-30T15:21:16.136Z,26.30
2024-04-30T15:23:44.231Z,26.30
2024-04-30T15:26:12.842Z,26.30
2024-04-30T15:28:40.024Z,26.30
2024-04-30T15:31:07.397Z,26.20
2024-04-30T15:33:36.092Z,26.20
2024-04-30T15:36:06.517Z,26.20
2024-04-30T15:38:33.581Z,26.20
2024-04-30T15:41:01.021Z,26.10
2024-04-30T15:43:29.735Z,26.00
2024-04-30T15:45:57.293Z,25.90
2024-04-30T15:48:24.638Z,25.80
2024-04-30T15:50:51.873Z,25.80
2024-04-30T15:53:22.272Z,25.80
2024-04-30T15:56:05.077Z,25.70
2024-04-30T15:58:37.463Z,25.70
2024-04-30T16:01:05.164Z,25.60
2024-04-30T16:03:32.223Z,25.70
2024-04-30T16:05:59.247Z,25.70
2024-04-30T16:08:26.174Z,25.60
2024-04-30T16:10:53.145Z,25.60
2024-04-30T16:13:20.147Z,25.60
2024-04-30T16:15:50.161Z,25.50
2024-04-30T16:18:19.598Z,25.50
2024-04-30T16:20:46.762Z,25.40
2024-04-30T16:23:13.700Z,25.30
2024-04-30T16:25:43.223Z,25.30
2024-04-30T16:28:11.882Z,25.30
2024-04-30T16:30:39.046Z,25.20
2024-04-30T16:33:06.349Z,25.20
2024-04-30T16:35:33.436Z,25.20
2024-04-30T16:38:01.012Z,25.10
2024-04-30T16:40:27.938Z,25.00
2024-04-30T16:42:54.986Z,24.90
2024-04-30T16:45:22.209Z,24.90
2024-04-30T16:47:49.196Z,24.80
2024-04-30T16:50:16.168Z,24.70
2024-04-30T16:52:45.030Z,24.70
2024-04-30T16:55:11.902Z,24.50
2024-04-30T16:57:39.263Z,24.30
2024-04-30T17:00:11.788Z,24.20
2024-04-30T17:02:39.038Z,24.00
2024-04-30T17:05:07.087Z,23.90
2024-04-30T17:07:37.125Z,23.80
2024-04-30T17:10:05.070Z,23.70
2024-04-30T17:12:32.383Z,23.60
2024-04-30T17:14:59.470Z,23.60
2024-04-30T17:17:27.001Z,23.40
2024-04-30T17:19:54.108Z,24.30
2024-04-30T17:22:20.992Z,23.30
2024-04-30T17:24:51.212Z,23.10
2024-04-30T17:27:18.440Z,22.90
2024-04-30T17:29:45.454Z,22.80
2024-04-30T17:32:12.555Z,22.90
2024-04-30T17:34:40.390Z,22.90
2024-04-30T17:37:07.548Z,22.80
2024-04-30T17:39:37.706Z,23.80
2024-04-30T17:42:06.611Z,22.70
2024-04-30T17:44:35.143Z,22.70
2024-04-30T17:47:02.174Z,22.60
2024-04-30T17:49:29.121Z,22.60
2024-04-30T17:51:56.313Z,22.60
2024-04-30T17:54:23.353Z,22.40
2024-04-30T17:56:50.565Z,22.30
2024-04-30T17:59:17.532Z,22.30
2024-04-30T18:01:48.940Z,22.10
2024-04-30T18:04:17.752Z,22.00
2024-04-30T18:06:44.971Z,22.00
2024-04-30T18:09:12.206Z,21.70
2024-04-30T18:11:39.785Z,21.50
2024-04-30T18:14:06.899Z,21.90
2024-04-30T18:16:38.011Z,21.20
2024-04-30T18:19:08.343Z,21.70
2024-04-30T18:21:36.953Z,21.10
2024-04-30T18:24:05.398Z,21.00
2024-04-30T18:26:37.544Z,20.70
2024-04-30T18:29:04.499Z,20.50
2024-04-30T18:31:31.348Z,20.40
2024-04-30T18:33:58.427Z,20.30
2024-04-30T18:36:26.527Z,20.20
2024-04-30T18:38:55.133Z,20.60
2024-04-30T18:41:28.287Z,20.60
2024-04-30T18:43:58.526Z,19.90
2024-04-30T18:46:25.538Z,19.70
2024-04-30T18:48:52.660Z,19.60
2024-04-30T18:51:20.674Z,19.80
2024-04-30T18:53:47.858Z,19.80
2024-04-30T18:56:17.530Z,19.50
2024-04-30T18:58:46.165Z,19.30
2024-04-30T19:01:14.094Z,19.50
2024-04-30T19:03:41.374Z,19.00
2024-04-30T19:06:09.554Z,20.40
2024-04-30T19:08:36.905Z,18.80
2024-04-30T19:11:05.457Z,18.70
2024-04-30T19:13:33.238Z,18.70
2024-04-30T19:16:05.087Z,20.60
2024-04-30T19:18:33.151Z,18.40
2024-04-30T19:21:02.799Z,18.30
2024-04-30T19:23:31.526Z,18.50
2024-04-30T19:26:02.363Z,18.60
2024-04-30T19:28:29.567Z,18.70
2024-04-30T19:30:56.784Z,18.40
2024-04-30T19:33:23.921Z,18.30
2024-04-30T19:35:51.076Z,18.60
2024-04-30T19:38:18.253Z,18.80
2024-04-30T19:40:46.339Z,18.10
2024-04-30T19:43:14.513Z,17.90
2024-04-30T19:45:42.043Z,17.70
2024-04-30T19:48:11.999Z,18.20
2024-04-30T19:50:41.527Z,17.90
2024-04-30T19:53:08.653Z,17.40
2024-04-30T19:55:35.443Z,17.30
2024-04-30T19:58:02.502Z,18.20
2024-04-30T20:00:29.582Z,17.30
2024-04-30T20:02:58.780Z,17.60
2024-04-30T20:05:25.834Z,17.40
2024-04-30T20:07:52.944Z,18.40
2024-04-30T20:10:19.922Z,17.50
2024-04-30T20:12:46.886Z,16.70
2024-04-30T20:15:14.056Z,17.00
2024-04-30T20:17:41.089Z,16.70
2024-04-30T20:20:08.347Z,17.20
2024-04-30T20:22:35.185Z,16.60
2024-04-30T20:25:02.190Z,17.00
2024-04-30T20:27:29.298Z,17.10
2024-04-30T20:29:56.221Z,17.10
2024-04-30T20:32:23.263Z,17.40
2024-04-30T20:34:50.142Z,16.50
2024-04-30T20:37:16.995Z,16.80
2024-04-30T20:39:44.040Z,16.40
2024-04-30T20:42:11.109Z,17.10
2024-04-30T20:44:38.081Z,16.70
2024-04-30T20:47:05.029Z,16.80
2024-04-30T20:49:32.099Z,16.10
2024-04-30T20:51:59.442Z,16.40
2024-04-30T20:54:26.704Z,15.90
2024-04-30T20:56:53.595Z,17.20
2024-04-30T20:59:20.453Z,16.90
2024-04-30T21:01:47.618Z,15.60
2024-04-30T21:04:14.775Z,15.40
2024-04-30T21:06:42.115Z,16.10
2024-04-30T21:09:09.229Z,15.50
2024-04-30T21:11:36.259Z,15.80
2024-04-30T21:14:03.406Z,17.30
2024-04-30T21:16:30.523Z,16.40
2024-04-30T21:18:57.514Z,15.00
2024-04-30T21:21:24.521Z,14.80
2024-04-30T21:23:51.526Z,14.70
2024-04-30T21:26:18.501Z,14.70
2024-04-30T21:28:45.354Z,14.80
2024-04-30T21:31:12.288Z,16.90
2024-04-30T21:33:43.184Z,14.40
2024-04-30T21:36:11.080Z,14.40
2024-04-30T21:38:38.099Z,14.50
2024-04-30T21:41:05.230Z,14.30
2024-04-30T21:43:32.219Z,14.20
2024-04-30T21:45:59.594Z,15.20
2024-04-30T21:48:26.595Z,15.40
2024-04-30T21:50:53.686Z,14.00
2024-04-30T21:53:20.625Z,13.90
2024-04-30T21:55:47.468Z,14.60
2024-04-30T21:58:14.411Z,14.80
2024-04-30T22:00:41.363Z,13.70
2024-04-30T22:03:08.359Z,13.70
2024-04-30T22:05:35.356Z,13.60
2024-04-30T22:08:02.279Z,13.60
2024-04-30T22:10:29.171Z,15.30
2024-04-30T22:12:56.210Z,13.40
2024-04-30T22:15:23.259Z,13.50
2024-04-30T22:17:50.438Z,14.80
2024-04-30T22:20:17.462Z,13.30
2024-04-30T22:22:44.364Z,13.60
2024-04-30T22:25:11.309Z,15.40
2024-04-30T22:27:38.297Z,13.20
2024-04-30T22:30:13.304Z,13.20
2024-04-30T22:32:47.645Z,13.30
2024-04-30T22:35:15.067Z,13.20
2024-04-30T22:37:41.972Z,13.10
2024-04-30T22:40:09.266Z,14.10
2024-04-30T22:42:36.227Z,13.10
2024-04-30T22:45:03.355Z,14.20
2024-04-30T22:47:30.417Z,12.90
2024-04-30T22:49:57.334Z,13.60
2024-04-30T22:52:24.197Z,12.70
2024-04-30T22:54:51.673Z,14.00
2024-04-30T22:57:19.110Z,12.60
2024-04-30T22:59:45.991Z,12.60
2024-04-30T23:02:12.995Z,12.60
2024-04-30T23:04:39.918Z,12.70
2024-04-30T23:07:06.981Z,12.60
2024-04-30T23:09:33.971Z,12.60
2024-04-30T23:12:01.321Z,12.70
2024-04-30T23:14:28.498Z,12.70
2024-04-30T23:16:55.431Z,12.80
2024-04-30T23:19:22.476Z,12.70
2024-04-30T23:21:49.700Z,12.80
2024-04-30T23:24:16.728Z,12.80
2024-04-30T23:26:43.644Z,12.90
2024-04-30T23:29:10.612Z,12.80
2024-04-30T23:31:37.584Z,12.90
2024-04-30T23:34:04.579Z,12.80
2024-04-30T23:36:31.530Z,12.80
2024-04-30T23:38:58.446Z,12.70
2024-04-30T23:41:25.725Z,12.70
2024-04-30T23:43:52.653Z,12.70
2024-04-30T23:46:19.757Z,12.60
2024-04-30T23:48:46.679Z,12.60
2024-04-30T23:51:14.441Z,14.20
2024-04-30T23:53:42.441Z,12.50
2024-04-30T23:56:09.877Z,12.40
2024-04-30T23:58:36.922Z,12.40
